createdAt,value
2019-05-07T00:02:46.578Z,4.70
2019-05-07T00:05:34.532Z,4.70
2019-05-07T00:08:22.996Z,4.70
2019-05-07T00:11:12.624Z,4.70
2019-05-07T00:13:54.954Z,4.70
2019-05-07T00:16:34.302Z,4.80
2019-05-07T00:19:43.209Z,4.80
2019-05-07T00:22:32.657Z,4.90
2019-05-07T00:25:22.887Z,5.00
2019-05-07T00:28:12.208Z,5.10
2019-05-07T00:31:02.798Z,5.10
2019-05-07T00:33:52.506Z,5.10
2019-05-07T00:36:59.114Z,4.90
2019-05-07T00:43:14.767Z,4.70
2019-05-07T00:49:12.677Z,4.50
2019-05-07T00:54:48.421Z,4.40
2019-05-07T00:57:17.269Z,4.40
2019-05-07T00:59:46.155Z,4.30
2019-05-07T01:02:14.737Z,4.30
2019-05-07T01:04:43.620Z,4.30
2019-05-07T01:07:32.486Z,4.30
2019-05-07T01:10:22.285Z,4.50
2019-05-07T01:13:04.105Z,4.60
2019-05-07T01:15:44.726Z,4.60
2019-05-07T01:18:25.161Z,4.60
2019-05-07T01:21:06.259Z,4.50
2019-05-07T01:23:47.429Z,4.50
2019-05-07T01:26:27.996Z,4.40
2019-05-07T01:29:09.221Z,4.30
2019-05-07T01:34:46.748Z,4.20
2019-05-07T01:37:15.601Z,4.20
2019-05-07T01:40:03.629Z,4.20
2019-05-07T01:42:52.961Z,4.10
2019-05-07T01:46:00.450Z,4.10
2019-05-07T01:48:48.365Z,4.00
2019-05-07T01:51:36.667Z,4.00
2019-05-07T01:54:24.619Z,4.00
2019-05-07T01:57:12.536Z,4.00
2019-05-07T02:00:02.588Z,4.00
2019-05-07T02:02:34.897Z,4.00
2019-05-07T02:05:42.485Z,4.10
2019-05-07T02:08:49.598Z,4.10
2019-05-07T02:11:56.734Z,4.00
2019-05-07T02:14:37.024Z,4.00
2019-05-07T02:17:18.062Z,3.90
2019-05-07T02:19:59.277Z,3.90
2019-05-07T02:22:39.869Z,3.80
2019-05-07T02:25:22.154Z,3.80
2019-05-07T02:28:02.902Z,3.70
2019-05-07T02:30:44.573Z,3.70
2019-05-07T02:33:25.242Z,3.80
2019-05-07T02:36:05.747Z,3.80
2019-05-07T02:39:06.166Z,3.70
2019-05-07T02:41:47.015Z,3.70
2019-05-07T02:44:27.809Z,3.70
2019-05-07T02:47:12.916Z,3.70
2019-05-07T02:49:54.822Z,3.70
2019-05-07T02:52:55.318Z,3.70
2019-05-07T02:55:38.377Z,3.70
2019-05-07T02:58:19.191Z,3.80
2019-05-07T03:01:04.431Z,3.90
2019-05-07T03:03:44.979Z,4.10
2019-05-07T03:06:25.730Z,4.20
2019-05-07T03:09:06.552Z,4.30
2019-05-07T03:11:47.422Z,4.40
2019-05-07T03:14:16.006Z,4.50
2019-05-07T03:16:49.219Z,4.40
2019-05-07T03:19:15.524Z,4.40
2019-05-07T03:21:53.840Z,4.30
2019-05-07T03:24:34.263Z,4.20
2019-05-07T03:27:23.489Z,4.10
2019-05-07T03:30:35.569Z,4.20
2019-05-07T03:33:40.154Z,4.30
2019-05-07T03:36:48.826Z,4.50
2019-05-07T03:39:49.020Z,4.50
2019-05-07T03:42:27.283Z,4.40
2019-05-07T03:45:34.495Z,4.30
2019-05-07T03:51:32.909Z,4.30
2019-05-07T03:54:23.783Z,4.30
2019-05-07T03:57:11.689Z,4.20
2019-05-07T03:59:59.729Z,4.20
2019-05-07T04:02:48.569Z,4.30
2019-05-07T04:05:36.489Z,4.20
2019-05-07T04:11:17.893Z,4.20
2019-05-07T04:14:05.869Z,4.20
2019-05-07T04:16:47.121Z,4.30
2019-05-07T04:19:28.419Z,4.40
2019-05-07T04:22:12.959Z,4.80
2019-05-07T04:24:53.551Z,5.30
2019-05-07T04:30:43.789Z,6.20
2019-05-07T04:33:44.214Z,6.60
2019-05-07T04:36:26.937Z,7.00
2019-05-07T04:39:07.741Z,7.40
2019-05-07T04:41:36.371Z,7.60
2019-05-07T04:44:24.429Z,7.80
2019-05-07T04:47:13.393Z,8.00
2019-05-07T04:50:03.736Z,8.30
2019-05-07T04:52:54.062Z,8.60
2019-05-07T04:55:23.093Z,8.90
2019-05-07T04:57:53.373Z,9.30
2019-05-07T05:00:23.103Z,9.60
2019-05-07T05:02:59.382Z,9.90
2019-05-07T05:05:28.104Z,10.20
2019-05-07T05:11:09.488Z,10.40
2019-05-07T05:13:57.402Z,10.80
2019-05-07T05:16:38.361Z,11.40
2019-05-07T05:19:19.347Z,11.60
2019-05-07T05:22:02.346Z,12.50
2019-05-07T05:24:47.801Z,13.00
2019-05-07T05:27:30.631Z,13.30
2019-05-07T05:30:13.343Z,13.50
2019-05-07T05:32:54.040Z,13.20
2019-05-07T05:35:35.352Z,13.50
2019-05-07T05:38:16.029Z,14.60
2019-05-07T05:40:56.427Z,15.20
2019-05-07T05:43:38.821Z,14.90
2019-05-07T05:46:22.659Z,14.50
2019-05-07T05:49:03.490Z,14.20
2019-05-07T05:54:54.118Z,13.10
2019-05-07T05:57:54.525Z,13.40
2019-05-07T06:00:54.522Z,13.60
2019-05-07T06:03:37.186Z,13.70
2019-05-07T06:06:19.218Z,13.80
2019-05-07T06:09:21.946Z,14.20
2019-05-07T06:12:22.178Z,14.00
2019-05-07T06:15:22.666Z,14.30
2019-05-07T06:18:18.008Z,15.20
2019-05-07T06:21:12.457Z,15.10
2019-05-07T06:24:11.921Z,15.10
2019-05-07T06:26:52.644Z,15.60
2019-05-07T06:29:33.202Z,16.40
2019-05-07T06:32:15.938Z,17.20
2019-05-07T06:34:57.258Z,17.30
2019-05-07T06:37:37.756Z,17.40
2019-05-07T06:40:27.540Z,17.90
2019-05-07T06:43:24.956Z,16.80
2019-05-07T06:46:06.598Z,16.50
2019-05-07T06:48:47.374Z,16.70
2019-05-07T06:51:28.629Z,17.00
2019-05-07T06:54:09.734Z,16.80
2019-05-07T06:56:52.373Z,17.00
2019-05-07T06:59:38.061Z,17.40
2019-05-07T07:08:23.013Z,17.20
2019-05-07T07:11:22.984Z,17.30
2019-05-07T07:13:52.022Z,17.50
2019-05-07T07:16:32.674Z,16.00
2019-05-07T07:19:13.682Z,15.40
2019-05-07T07:21:54.278Z,14.90
2019-05-07T07:24:35.192Z,14.70
2019-05-07T07:27:16.448Z,14.60
2019-05-07T07:32:53.098Z,15.20
2019-05-07T07:35:33.567Z,15.20
2019-05-07T07:38:37.258Z,15.90
2019-05-07T07:41:37.341Z,16.60
2019-05-07T07:44:18.602Z,16.40
2019-05-07T07:47:02.332Z,15.90
2019-05-07T07:49:42.657Z,16.20
2019-05-07T07:52:23.638Z,16.30
2019-05-07T07:55:04.791Z,16.60
2019-05-07T07:57:52.072Z,16.40
2019-05-07T08:00:33.989Z,16.10
2019-05-07T08:03:15.349Z,15.50
2019-05-07T08:05:56.210Z,15.90
2019-05-07T08:08:37.449Z,16.70
2019-05-07T08:11:18.271Z,16.60
2019-05-07T08:13:59.037Z,16.60
2019-05-07T08:16:39.941Z,16.60
2019-05-07T08:19:22.739Z,16.10
2019-05-07T08:21:52.135Z,16.40
2019-05-07T08:24:22.556Z,17.00
2019-05-07T08:26:51.930Z,17.40
2019-05-07T08:29:22.480Z,17.50
2019-05-07T08:35:26.062Z,17.60
2019-05-07T08:38:13.976Z,17.50
2019-05-07T08:41:02.723Z,17.20
2019-05-07T08:49:59.097Z,15.30
2019-05-07T08:52:47.421Z,15.30
2019-05-07T08:55:35.405Z,15.10
2019-05-07T08:58:04.118Z,14.90
2019-05-07T09:00:32.799Z,15.50
2019-05-07T09:03:01.786Z,15.60
2019-05-07T09:05:51.923Z,16.00
2019-05-07T09:08:39.647Z,16.00
2019-05-07T09:11:27.652Z,16.10
2019-05-07T09:14:15.917Z,15.80
2019-05-07T09:17:03.878Z,15.60
2019-05-07T09:19:51.564Z,15.20
2019-05-07T09:22:27.285Z,14.80
2019-05-07T09:25:08.518Z,14.80
2019-05-07T09:27:52.380Z,15.10
2019-05-07T09:33:07.548Z,15.00
2019-05-07T09:35:44.202Z,14.30
2019-05-07T09:38:32.750Z,14.20
2019-05-07T09:41:41.769Z,14.00
2019-05-07T09:44:29.880Z,14.00
2019-05-07T09:47:18.183Z,14.20
2019-05-07T09:50:08.194Z,14.80
2019-05-07T09:58:58.934Z,15.80
2019-05-07T10:01:47.054Z,14.80
2019-05-07T10:04:35.107Z,14.70
2019-05-07T10:07:23.107Z,14.80
2019-05-07T10:10:12.089Z,14.80
2019-05-07T10:13:22.485Z,15.50
2019-05-07T10:16:10.141Z,16.10
2019-05-07T10:18:52.048Z,16.60
2019-05-07T10:21:32.824Z,16.80
2019-05-07T10:24:14.360Z,16.70
2019-05-07T10:26:55.430Z,16.40
2019-05-07T10:29:36.428Z,16.10
2019-05-07T10:32:16.860Z,16.30
2019-05-07T10:34:45.473Z,16.60
2019-05-07T10:37:14.482Z,16.90
2019-05-07T10:39:43.166Z,16.90
2019-05-07T10:42:32.327Z,16.80
2019-05-07T10:48:39.170Z,16.40
2019-05-07T10:51:27.816Z,15.70
2019-05-07T10:54:15.848Z,15.50
2019-05-07T10:57:03.903Z,15.20
2019-05-07T10:59:52.374Z,15.10
2019-05-07T11:02:42.594Z,15.20
2019-05-07T11:05:32.608Z,15.40
2019-05-07T11:08:22.194Z,15.50
2019-05-07T11:11:10.546Z,15.50
2019-05-07T11:13:58.505Z,15.60
2019-05-07T11:19:47.613Z,15.40
2019-05-07T11:22:28.065Z,15.50
2019-05-07T11:25:09.225Z,15.30
2019-05-07T11:27:52.184Z,15.10
2019-05-07T11:30:32.233Z,15.10
2019-05-07T11:33:13.130Z,14.90
2019-05-07T11:35:53.666Z,14.60
2019-05-07T11:38:34.987Z,14.60
2019-05-07T11:41:16.690Z,14.70
2019-05-07T11:44:02.249Z,14.70
2019-05-07T11:47:03.145Z,14.60
2019-05-07T11:50:03.292Z,14.70
2019-05-07T11:52:48.590Z,15.00
2019-05-07T11:55:29.106Z,15.40
2019-05-07T11:58:12.654Z,15.50
2019-05-07T12:00:54.023Z,15.40
2019-05-07T12:03:35.306Z,15.30
2019-05-07T12:06:16.548Z,15.50
2019-05-07T12:08:57.539Z,15.70
2019-05-07T12:11:38.149Z,15.80
2019-05-07T12:14:28.949Z,15.80
2019-05-07T12:17:02.739Z,15.90
2019-05-07T12:19:43.914Z,15.90
2019-05-07T12:22:14.536Z,15.70
2019-05-07T12:24:45.671Z,15.80
2019-05-07T12:27:13.405Z,15.80
2019-05-07T12:29:42.416Z,15.60
2019-05-07T12:32:18.640Z,15.50
2019-05-07T12:34:52.780Z,15.00
2019-05-07T12:37:22.528Z,14.60
2019-05-07T12:39:52.752Z,14.80
2019-05-07T12:42:22.344Z,14.90
2019-05-07T12:44:51.771Z,15.00
2019-05-07T12:47:22.523Z,14.70
2019-05-07T12:49:51.589Z,15.00
2019-05-07T12:52:22.741Z,15.20
2019-05-07T12:54:53.374Z,15.30
2019-05-07T12:57:22.026Z,15.00
2019-05-07T12:59:52.824Z,15.00
2019-05-07T13:02:37.126Z,15.00
2019-05-07T13:04:57.991Z,14.80
2019-05-07T13:07:27.442Z,15.10
2019-05-07T13:09:56.024Z,15.00
2019-05-07T13:12:24.649Z,15.10
2019-05-07T13:14:53.233Z,15.20
2019-05-07T13:17:22.396Z,15.10
2019-05-07T13:19:52.477Z,15.00
2019-05-07T13:22:21.960Z,14.80
2019-05-07T13:24:52.734Z,14.60
2019-05-07T13:27:20.981Z,14.50
2019-05-07T13:29:49.771Z,14.50
2019-05-07T13:32:19.480Z,14.40
2019-05-07T13:34:49.092Z,14.30
2019-05-07T13:37:21.943Z,14.40
2019-05-07T13:39:55.480Z,14.40
2019-05-07T13:42:25.780Z,14.30
2019-05-07T13:44:56.275Z,14.40
2019-05-07T13:47:35.884Z,14.30
2019-05-07T13:50:06.647Z,14.10
2019-05-07T13:52:35.699Z,14.00
2019-05-07T13:55:06.352Z,14.00
2019-05-07T13:57:35.336Z,14.00
2019-05-07T14:00:09.725Z,14.10
2019-05-07T14:02:38.352Z,14.10
2019-05-07T14:05:07.285Z,14.10
2019-05-07T14:07:37.888Z,14.00
2019-05-07T14:10:06.744Z,14.00
2019-05-07T14:12:37.016Z,13.90
2019-05-07T14:15:06.828Z,13.70
2019-05-07T14:17:35.718Z,13.70
2019-05-07T14:20:05.853Z,13.60
2019-05-07T14:22:34.750Z,13.70
2019-05-07T14:25:03.872Z,13.70
2019-05-07T14:27:32.589Z,13.70
2019-05-07T14:30:02.690Z,13.70
2019-05-07T14:32:38.747Z,13.70
2019-05-07T14:35:15.809Z,13.60
2019-05-07T14:37:46.176Z,13.50
2019-05-07T14:40:15.319Z,13.40
2019-05-07T14:42:45.598Z,13.30
2019-05-07T14:45:14.459Z,13.40
2019-05-07T14:47:44.774Z,13.60
2019-05-07T14:50:14.757Z,13.90
2019-05-07T14:52:43.567Z,14.00
2019-05-07T14:55:13.130Z,13.90
2019-05-07T14:57:42.221Z,13.90
2019-05-07T15:00:12.231Z,13.70
2019-05-07T15:02:42.137Z,13.40
2019-05-07T15:05:12.119Z,13.30
2019-05-07T15:07:41.716Z,13.20
2019-05-07T15:10:10.804Z,13.30
2019-05-07T15:12:39.603Z,13.30
2019-05-07T15:15:08.944Z,13.40
2019-05-07T15:17:47.897Z,13.40
2019-05-07T15:20:16.880Z,13.20
2019-05-07T15:22:49.948Z,13.20
2019-05-07T15:25:18.181Z,13.30
2019-05-07T15:27:49.604Z,13.40
2019-05-07T15:30:18.324Z,13.30
2019-05-07T15:32:47.013Z,13.30
2019-05-07T15:35:15.676Z,13.00
2019-05-07T15:37:44.465Z,13.00
2019-05-07T15:40:13.325Z,13.00
2019-05-07T15:42:42.335Z,12.90
2019-05-07T15:45:12.528Z,12.90
2019-05-07T15:47:43.256Z,12.90
2019-05-07T15:50:12.580Z,12.90
2019-05-07T15:52:58.003Z,13.00
2019-05-07T15:55:19.638Z,13.00
2019-05-07T15:57:48.854Z,13.10
2019-05-07T16:00:21.636Z,13.20
2019-05-07T16:02:53.793Z,13.10
2019-05-07T16:05:22.746Z,13.10
2019-05-07T16:07:51.845Z,13.10
2019-05-07T16:10:23.056Z,13.30
2019-05-07T16:12:53.060Z,13.30
2019-05-07T16:15:22.630Z,13.30
2019-05-07T16:17:52.845Z,13.40
2019-05-07T16:20:22.851Z,13.30
2019-05-07T16:22:55.054Z,13.30
2019-05-07T16:25:23.605Z,13.40
2019-05-07T16:27:52.714Z,13.50
2019-05-07T16:30:22.863Z,13.50
2019-05-07T16:32:55.106Z,13.30
2019-05-07T16:35:22.860Z,13.30
2019-05-07T16:37:52.194Z,13.20
2019-05-07T16:40:22.981Z,13.20
2019-05-07T16:42:52.522Z,13.40
2019-05-07T16:45:22.513Z,13.50
2019-05-07T16:47:52.179Z,13.60
2019-05-07T16:50:22.390Z,13.70
2019-05-07T16:52:52.556Z,13.70
2019-05-07T16:55:23.720Z,13.70
2019-05-07T16:58:06.118Z,13.60
2019-05-07T17:00:42.549Z,13.70
2019-05-07T17:03:13.102Z,13.60
2019-05-07T17:05:42.864Z,13.50
2019-05-07T17:08:13.321Z,13.50
2019-05-07T17:10:42.495Z,13.40
2019-05-07T17:13:12.562Z,13.40
2019-05-07T17:15:57.666Z,13.20
2019-05-07T17:18:27.364Z,13.20
2019-05-07T17:20:57.363Z,13.00
2019-05-07T17:23:34.427Z,12.90
2019-05-07T17:25:56.934Z,12.90
2019-05-07T17:28:26.086Z,12.80
2019-05-07T17:30:54.778Z,12.80
2019-05-07T17:33:23.485Z,12.70
2019-05-07T17:35:52.777Z,12.60
2019-05-07T17:38:23.065Z,12.50
2019-05-07T17:40:52.789Z,12.40
2019-05-07T17:43:21.929Z,12.40
2019-05-07T17:45:52.237Z,12.40
2019-05-07T17:48:23.031Z,12.40
2019-05-07T17:50:55.618Z,12.40
2019-05-07T17:53:24.244Z,12.40
2019-05-07T17:55:53.103Z,12.40
2019-05-07T17:58:22.665Z,12.30
2019-05-07T18:00:53.021Z,12.20
2019-05-07T18:03:32.430Z,12.10
2019-05-07T18:06:02.418Z,12.00
2019-05-07T18:08:32.520Z,11.90
2019-05-07T18:11:02.474Z,11.90
2019-05-07T18:13:32.201Z,11.80
2019-05-07T18:16:03.121Z,11.80
2019-05-07T18:18:32.842Z,11.70
2019-05-07T18:21:02.461Z,11.70
2019-05-07T18:23:32.505Z,11.60
2019-05-07T18:26:01.372Z,11.60
2019-05-07T18:28:32.384Z,11.60
2019-05-07T18:31:02.055Z,11.50
2019-05-07T18:33:33.675Z,11.50
2019-05-07T18:36:02.801Z,11.40
2019-05-07T18:38:32.964Z,11.40
2019-05-07T18:41:02.698Z,11.30
2019-05-07T18:43:33.202Z,11.20
2019-05-07T18:46:02.338Z,11.10
2019-05-07T18:48:31.278Z,11.10
2019-05-07T18:50:59.900Z,11.00
2019-05-07T18:53:28.476Z,11.00
2019-05-07T18:55:57.526Z,10.90
2019-05-07T18:58:26.456Z,10.90
2019-05-07T19:00:59.352Z,10.80
2019-05-07T19:03:28.259Z,10.70
2019-05-07T19:05:58.113Z,10.70
2019-05-07T19:08:27.542Z,10.60
2019-05-07T19:10:56.275Z,10.50
2019-05-07T19:13:25.043Z,10.50
2019-05-07T19:15:56.371Z,10.40
2019-05-07T19:18:23.952Z,10.40
2019-05-07T19:20:53.040Z,10.30
2019-05-07T19:23:22.319Z,10.30
2019-05-07T19:25:52.270Z,10.20
2019-05-07T19:28:22.447Z,10.20
2019-05-07T19:30:52.810Z,10.10
2019-05-07T19:33:26.846Z,10.10
2019-05-07T19:35:52.902Z,10.10
2019-05-07T19:38:21.579Z,10.00
2019-05-07T19:40:52.738Z,10.00
2019-05-07T19:43:21.161Z,9.90
2019-05-07T19:45:52.232Z,9.90
2019-05-07T19:48:20.323Z,9.90
2019-05-07T19:50:49.077Z,9.80
2019-05-07T19:53:20.352Z,9.80
2019-05-07T19:56:04.681Z,9.80
2019-05-07T19:58:33.782Z,9.80
2019-05-07T20:01:04.019Z,9.70
2019-05-07T20:03:33.085Z,9.80
2019-05-07T20:06:02.404Z,9.80
2019-05-07T20:08:32.256Z,9.80
2019-05-07T20:11:18.890Z,9.70
2019-05-07T20:13:47.471Z,9.70
2019-05-07T20:16:20.077Z,9.80
2019-05-07T20:18:49.035Z,9.90
2019-05-07T20:21:17.650Z,9.80
2019-05-07T20:23:46.232Z,9.80
2019-05-07T20:26:14.812Z,9.80
2019-05-07T20:28:43.428Z,9.80
2019-05-07T20:31:12.472Z,9.80
2019-05-07T20:33:42.185Z,9.80
2019-05-07T20:36:11.424Z,9.90
2019-05-07T20:38:42.518Z,9.90
2019-05-07T20:41:12.937Z,9.90
2019-05-07T20:43:42.847Z,9.90
2019-05-07T20:46:12.108Z,9.90
2019-05-07T20:48:42.364Z,9.90
2019-05-07T20:51:12.440Z,9.90
2019-05-07T20:53:52.353Z,9.90
2019-05-07T20:56:25.369Z,9.90
2019-05-07T20:58:53.963Z,9.90
2019-05-07T21:01:22.550Z,9.90
2019-05-07T21:03:52.736Z,9.90
2019-05-07T21:06:22.506Z,9.90
2019-05-07T21:08:51.205Z,9.90
2019-05-07T21:11:19.815Z,9.90
2019-05-07T21:13:48.437Z,9.90
2019-05-07T21:16:17.128Z,9.90
2019-05-07T21:18:45.720Z,10.00
2019-05-07T21:21:14.420Z,10.00
2019-05-07T21:23:43.547Z,10.00
2019-05-07T21:26:13.208Z,10.00
2019-05-07T21:28:43.059Z,10.00
2019-05-07T21:31:12.274Z,10.00
2019-05-07T21:33:42.935Z,10.00
2019-05-07T21:36:12.090Z,10.00
2019-05-07T21:38:42.483Z,10.00
2019-05-07T21:41:12.907Z,9.90
2019-05-07T21:43:45.584Z,9.90
2019-05-07T21:46:12.771Z,9.90
2019-05-07T21:48:41.651Z,9.80
2019-05-07T21:51:12.245Z,9.80
2019-05-07T21:53:42.954Z,9.80
2019-05-07T21:56:13.323Z,9.80
2019-05-07T21:58:49.020Z,9.80
2019-05-07T22:01:34.228Z,9.80
2019-05-07T22:04:03.142Z,9.70
2019-05-07T22:06:32.587Z,9.70
2019-05-07T22:09:01.995Z,9.70
2019-05-07T22:11:32.358Z,9.70
2019-05-07T22:14:02.130Z,9.70
2019-05-07T22:16:32.790Z,9.60
2019-05-07T22:19:02.656Z,9.60
2019-05-07T22:21:33.971Z,9.50
2019-05-07T22:24:02.786Z,9.40
2019-05-07T22:26:32.338Z,9.40
2019-05-07T22:29:03.211Z,9.30
2019-05-07T22:31:38.770Z,9.30
2019-05-07T22:34:18.101Z,9.30
2019-05-07T22:36:46.689Z,9.20
2019-05-07T22:39:15.663Z,9.20
2019-05-07T22:41:44.239Z,9.10
2019-05-07T22:44:12.812Z,9.00
2019-05-07T22:46:42.294Z,9.00
2019-05-07T22:49:12.301Z,8.90
2019-05-07T22:51:41.024Z,8.90
2019-05-07T22:54:11.697Z,8.80
2019-05-07T22:56:59.628Z,8.80
2019-05-07T22:59:28.251Z,8.80
2019-05-07T23:01:56.824Z,8.80
2019-05-07T23:04:25.432Z,8.80
2019-05-07T23:06:54.026Z,8.80
2019-05-07T23:09:22.647Z,8.80
2019-05-07T23:11:52.700Z,8.70
2019-05-07T23:14:22.661Z,8.70
2019-05-07T23:16:54.966Z,8.70
2019-05-07T23:19:22.229Z,8.70
2019-05-07T23:21:52.087Z,8.70
2019-05-07T23:24:22.562Z,8.70
2019-05-07T23:26:53.659Z,8.70
2019-05-07T23:29:22.501Z,8.60
2019-05-07T23:31:52.904Z,8.60
2019-05-07T23:34:22.240Z,8.60
2019-05-07T23:36:53.430Z,8.60
2019-05-07T23:39:23.170Z,8.60
2019-05-07T23:41:55.830Z,8.60
2019-05-07T23:44:24.400Z,8.60
2019-05-07T23:46:53.297Z,8.50
2019-05-07T23:49:23.161Z,8.50
2019-05-07T23:51:53.021Z,8.50
2019-05-07T23:54:23.047Z,8.60
2019-05-07T23:57:05.458Z,8.50
2019-05-07T23:59:22.397Z,8.50
